Time;durP1;ratioP1;P1;durP2;ratioP2;P2;SDS_P1;SDS_P2;PMS_P1;PMS_P2;Temp;Humidity;BMP_temperature;BMP_pressure;BME280_temperature;BME280_humidity;BME280_pressure;Samples;Min_cycle;Max_cycle;Signal;HPM_P1;HPM_P2
2023/09/02 00:02:49;;;;;;;42.20;6.35;;;;;;;;;;5082114;28;20174;-92
2023/09/02 00:05:55;;;;;;;12.07;5.45;;;;;;;;;;5081512;28;20241;-92
2023/09/02 00:09:00;;;;;;;52.72;5.50;;;;;;;;;;5082008;28;20253;-91
2023/09/02 00:12:08;;;;;;;40.60;5.32;;;;;;;;;;5097378;28;20190;-92
2023/09/02 00:15:14;;;;;;;19.85;5.38;;;;;;;;;;5100659;28;20213;-91
2023/09/02 00:18:19;;;;;;;28.38;6.18;;;;;;;;;;5100026;28;20186;-93
2023/09/02 00:21:24;;;;;;;30.58;5.10;;;;;;;;;;5100022;28;20196;-91
2023/09/02 00:24:30;;;;;;;89.60;6.75;;;;;;;;;;5099859;28;20280;-91
2023/09/02 00:27:37;;;;;;;40.33;5.50;;;;;;;;;;5078976;28;20234;-92
2023/09/02 00:30:42;;;;;;;37.95;5.05;;;;;;;;;;5090399;28;20175;-91
2023/09/02 00:33:48;;;;;;;58.63;5.57;;;;;;;;;;5089653;28;20191;-93
2023/09/02 00:36:53;;;;;;;35.28;5.25;;;;;;;;;;5083428;28;20560;-92
2023/09/02 00:39:58;;;;;;;36.10;5.40;;;;;;;;;;5097011;28;20182;-93
2023/09/02 00:43:05;;;;;;;66.65;5.38;;;;;;;;;;5114315;28;20177;-91
2023/09/02 00:46:11;;;;;;;59.55;5.50;;;;;;;;;;5116826;28;20173;-91
2023/09/02 00:49:16;;;;;;;45.38;4.68;;;;;;;;;;5098474;28;20408;-93
2023/09/02 00:52:22;;;;;;;31.50;4.70;;;;;;;;;;5089028;28;20193;-94
2023/09/02 00:55:27;;;;;;;43.13;4.70;;;;;;;;;;5093677;28;20209;-92
2023/09/02 00:58:35;;;;;;;28.08;4.70;;;;;;;;;;5076478;28;20267;-90
2023/09/02 01:01:42;;;;;;;13.65;4.35;;;;;;;;;;5094485;28;20213;-92
2023/09/02 01:04:49;;;;;;;19.05;4.82;;;;;;;;;;5096751;28;20212;-91
2023/09/02 01:07:54;;;;;;;33.97;4.45;;;;;;;;;;5077171;28;20265;-92
2023/09/02 01:11:00;;;;;;;30.45;4.13;;;;;;;;;;5086579;28;20217;-92
2023/09/02 01:14:08;;;;;;;15.52;4.40;;;;;;;;;;5104253;28;20204;-89
2023/09/02 01:17:14;;;;;;;25.33;4.15;;;;;;;;;;5117235;28;20185;-92
2023/09/02 01:20:19;;;;;;;13.90;4.35;;;;;;;;;;5099743;28;20202;-92
2023/09/02 01:23:34;;;;;;;12.52;3.33;;;;;;;;;;5077334;28;20197;-92
2023/09/02 01:27:06;;;;;;;11.60;3.10;;;;;;;;;;5108962;28;20197;-93
2023/09/02 01:30:15;;;;;;;8.85;3.40;;;;;;;;;;5116765;28;20193;-91
2023/09/02 01:33:22;;;;;;;17.48;3.15;;;;;;;;;;5111525;28;20192;-93
2023/09/02 01:36:29;;;;;;;25.13;4.78;;;;;;;;;;5118146;28;20185;-92
2023/09/02 01:39:35;;;;;;;20.70;4.18;;;;;;;;;;5108502;28;20202;-94
2023/09/02 01:42:41;;;;;;;7.93;4.30;;;;;;;;;;5079733;28;20252;-89
2023/09/02 01:45:48;;;;;;;16.63;4.55;;;;;;;;;;5112619;28;20252;-90
2023/09/02 01:48:54;;;;;;;16.20;4.15;;;;;;;;;;5117619;28;20217;-91
2023/09/02 01:51:59;;;;;;;13.85;4.07;;;;;;;;;;5103215;28;20261;-91
2023/09/02 01:55:04;;;;;;;83.47;6.38;;;;;;;;;;5095580;28;20770;-92
2023/09/02 01:58:10;;;;;;;23.40;4.88;;;;;;;;;;5077811;28;20258;-90
2023/09/02 02:01:17;;;;;;;17.15;3.83;;;;;;;;;;5097445;28;20233;-91
2023/09/02 02:04:25;;;;;;;6.80;3.40;;;;;;;;;;5083093;28;20206;-93
2023/09/02 02:07:33;;;;;;;6.53;2.90;;;;;;;;;;5074378;28;20234;-92
2023/09/02 02:10:40;;;;;;;3.42;2.88;;;;;;;;;;5096681;28;20190;-92
2023/09/02 02:13:45;;;;;;;4.50;3.05;;;;;;;;;;5092424;28;20689;-91
2023/09/02 02:16:52;;;;;;;3.42;2.60;;;;;;;;;;5093657;28;20232;-90
2023/09/02 02:19:58;;;;;;;6.45;2.70;;;;;;;;;;5097746;28;20193;-90
2023/09/02 02:23:03;;;;;;;3.63;2.42;;;;;;;;;;5105023;28;20554;-93
2023/09/02 02:26:08;;;;;;;2.90;2.20;;;;;;;;;;5104895;28;20705;-91
2023/09/02 02:29:13;;;;;;;2.33;1.98;;;;;;;;;;5103658;28;20232;-91
2023/09/02 02:32:20;;;;;;;3.97;2.10;;;;;;;;;;5103415;28;20190;-90
2023/09/02 02:35:31;;;;;;;7.00;2.60;;;;;;;;;;5098253;28;20209;-89
2023/09/02 02:38:36;;;;;;;5.85;2.05;;;;;;;;;;5092643;28;20285;-92
2023/09/02 02:41:41;;;;;;;4.68;1.77;;;;;;;;;;5092410;28;20247;-92
2023/09/02 02:44:46;;;;;;;5.45;2.13;;;;;;;;;;5093578;28;20185;-90
2023/09/02 02:47:53;;;;;;;5.75;2.63;;;;;;;;;;5082357;28;20287;-90
2023/09/02 02:51:00;;;;;;;5.28;2.63;;;;;;;;;;5092314;28;20212;-90
2023/09/02 02:54:05;;;;;;;4.35;3.00;;;;;;;;;;5100455;28;20891;-89
2023/09/02 02:57:10;;;;;;;5.00;2.95;;;;;;;;;;5105692;28;20213;-93
2023/09/02 03:00:15;;;;;;;4.85;3.05;;;;;;;;;;5105546;28;20181;-95
2023/09/02 03:03:22;;;;;;;7.30;3.40;;;;;;;;;;5088509;28;20293;-90
2023/09/02 03:06:27;;;;;;;7.63;3.58;;;;;;;;;;5094978;28;20268;-92
2023/09/02 03:09:33;;;;;;;15.85;3.75;;;;;;;;;;5075971;28;20194;-94
2023/09/02 03:12:38;;;;;;;30.85;4.35;;;;;;;;;;5104737;28;20193;-91
2023/09/02 03:15:50;;;;;;;15.63;3.60;;;;;;;;;;5104803;28;20197;-96
2023/09/02 03:18:58;;;;;;;19.05;3.95;;;;;;;;;;5099039;28;20335;-91
2023/09/02 03:22:05;;;;;;;12.60;4.15;;;;;;;;;;5071837;28;20214;-91
2023/09/02 03:25:11;;;;;;;26.92;4.10;;;;;;;;;;5077808;28;20171;-93
2023/09/02 03:28:17;;;;;;;16.02;5.18;;;;;;;;;;5090529;28;20206;-89
2023/09/02 03:31:22;;;;;;;8.77;4.28;;;;;;;;;;5097513;28;20332;-90
2023/09/02 03:34:29;;;;;;;40.75;4.75;;;;;;;;;;5098209;28;20636;-91
2023/09/02 03:37:35;;;;;;;12.27;4.38;;;;;;;;;;5096386;28;20562;-93
2023/09/02 03:40:43;;;;;;;11.73;4.90;;;;;;;;;;5095132;28;20177;-91
2023/09/02 03:43:49;;;;;;;33.72;5.35;;;;;;;;;;5097694;28;20272;-94
2023/09/02 03:46:54;;;;;;;12.48;4.93;;;;;;;;;;5097815;28;20273;-90
2023/09/02 03:50:01;;;;;;;10.27;5.00;;;;;;;;;;5097104;28;20190;-91
2023/09/02 03:53:07;;;;;;;16.88;4.95;;;;;;;;;;5096423;28;20198;-92
2023/09/02 03:56:13;;;;;;;23.40;5.22;;;;;;;;;;5105680;28;20190;-92
2023/09/02 03:59:19;;;;;;;12.50;5.88;;;;;;;;;;5097260;28;20217;-92
2023/09/02 04:02:24;;;;;;;17.58;5.68;;;;;;;;;;5096155;28;20672;-93
2023/09/02 04:05:31;;;;;;;33.08;5.70;;;;;;;;;;5095586;28;20193;-91
2023/09/02 04:08:36;;;;;;;15.82;5.22;;;;;;;;;;5098785;28;20217;-92
2023/09/02 04:11:43;;;;;;;13.00;4.43;;;;;;;;;;5106462;28;20228;-90
2023/09/02 04:14:50;;;;;;;7.22;4.07;;;;;;;;;;5095767;28;20190;-90
2023/09/02 04:17:55;;;;;;;19.27;5.43;;;;;;;;;;5105955;28;20400;-93
2023/09/02 04:21:02;;;;;;;20.48;5.32;;;;;;;;;;5077068;28;20261;-94
2023/09/02 04:24:08;;;;;;;42.30;6.35;;;;;;;;;;5076806;28;20279;-89
2023/09/02 04:27:13;;;;;;;10.43;4.70;;;;;;;;;;5090713;28;20208;-90
2023/09/02 04:30:19;;;;;;;10.15;4.90;;;;;;;;;;5099080;28;20201;-90
2023/09/02 04:33:25;;;;;;;10.85;5.22;;;;;;;;;;5096219;28;20206;-91
2023/09/02 04:36:33;;;;;;;9.00;4.82;;;;;;;;;;5103781;28;20193;-93
2023/09/02 04:39:40;;;;;;;14.13;4.35;;;;;;;;;;5098182;28;20316;-90
2023/09/02 04:42:47;;;;;;;11.05;4.70;;;;;;;;;;5076779;28;20194;-90
2023/09/02 04:45:52;;;;;;;9.88;4.22;;;;;;;;;;5088572;28;20205;-88
2023/09/02 04:48:57;;;;;;;5.40;3.92;;;;;;;;;;5096852;28;20210;-92
2023/09/02 04:52:04;;;;;;;7.88;4.50;;;;;;;;;;5097606;28;20206;-92
2023/09/02 04:55:10;;;;;;;19.45;4.30;;;;;;;;;;5098174;28;20209;-90
2023/09/02 04:58:16;;;;;;;32.47;4.45;;;;;;;;;;5098615;28;20220;-92
2023/09/02 05:01:23;;;;;;;12.50;4.55;;;;;;;;;;5095670;28;20189;-94
2023/09/02 05:04:33;;;;;;;16.83;4.72;;;;;;;;;;5112238;28;20190;-92
2023/09/02 05:07:40;;;;;;;11.63;4.47;;;;;;;;;;5100751;28;20296;-90
2023/09/02 05:10:46;;;;;;;12.20;4.55;;;;;;;;;;5106015;28;20205;-93
2023/09/02 05:13:52;;;;;;;19.20;4.78;;;;;;;;;;5103782;28;20205;-90
2023/09/02 05:16:58;;;;;;;6.55;4.55;;;;;;;;;;5106594;28;20209;-91
2023/09/02 05:20:04;;;;;;;11.90;4.93;;;;;;;;;;5094569;28;20240;-91
2023/09/02 05:23:13;;;;;;;11.00;4.88;;;;;;;;;;5091449;28;20282;-91
2023/09/02 05:26:18;;;;;;;13.05;5.95;;;;;;;;;;5086789;28;20191;-89
2023/09/02 05:29:23;;;;;;;16.23;5.50;;;;;;;;;;5073968;28;20219;-92
2023/09/02 05:32:28;;;;;;;10.52;5.07;;;;;;;;;;5092542;28;20193;-90
2023/09/02 05:35:34;;;;;;;14.27;5.57;;;;;;;;;;5106919;28;20198;-88
2023/09/02 05:38:41;;;;;;;44.53;4.85;;;;;;;;;;5095464;28;20201;-89
2023/09/02 05:41:46;;;;;;;9.70;5.00;;;;;;;;;;5097301;28;20201;-92
2023/09/02 05:44:50;;;;;;;7.13;4.57;;;;;;;;;;5097429;28;20648;-90
2023/09/02 05:47:55;;;;;;;29.92;4.90;;;;;;;;;;5074892;28;20182;-91
2023/09/02 05:51:02;;;;;;;13.45;4.60;;;;;;;;;;5077895;28;20204;-92
2023/09/02 05:54:09;;;;;;;10.23;4.90;;;;;;;;;;5089008;28;20196;-93
2023/09/02 05:57:15;;;;;;;9.23;5.00;;;;;;;;;;5106592;28;20174;-92
2023/09/02 06:00:20;;;;;;;16.67;4.85;;;;;;;;;;5078607;28;20217;-91
2023/09/02 06:03:25;;;;;;;12.02;4.85;;;;;;;;;;5089753;28;20194;-89
2023/09/02 06:06:30;;;;;;;7.18;4.40;;;;;;;;;;5095207;28;20205;-90
2023/09/02 06:09:37;;;;;;;11.70;4.43;;;;;;;;;;5095007;28;20229;-90
2023/09/02 06:12:43;;;;;;;11.43;4.50;;;;;;;;;;5081455;28;20210;-89
2023/09/02 06:15:52;;;;;;;8.35;4.40;;;;;;;;;;5088177;28;20337;-90
2023/09/02 06:18:57;;;;;;;6.68;4.07;;;;;;;;;;5087858;28;20186;-91
2023/09/02 06:22:03;;;;;;;10.73;4.25;;;;;;;;;;5090474;28;20193;-91
2023/09/02 06:25:10;;;;;;;7.32;3.78;;;;;;;;;;5105559;28;20220;-90
2023/09/02 06:28:15;;;;;;;21.05;3.65;;;;;;;;;;5093294;28;20189;-91
2023/09/02 06:31:21;;;;;;;6.30;3.80;;;;;;;;;;5094397;28;20187;-89
2023/09/02 06:34:26;;;;;;;10.10;4.55;;;;;;;;;;5101597;28;20209;-89
2023/09/02 06:37:32;;;;;;;8.23;4.60;;;;;;;;;;5109449;28;20240;-91
2023/09/02 06:40:40;;;;;;;6.55;4.43;;;;;;;;;;5077084;28;20672;-89
2023/09/02 06:43:45;;;;;;;6.65;3.88;;;;;;;;;;5077740;28;20553;-92
2023/09/02 06:46:51;;;;;;;6.57;4.03;;;;;;;;;;5089301;28;20293;-89
2023/09/02 06:49:56;;;;;;;4.90;3.25;;;;;;;;;;5086542;28;20220;-89
2023/09/02 06:53:03;;;;;;;5.10;3.33;;;;;;;;;;5077140;28;20195;-92
2023/09/02 06:56:11;;;;;;;5.93;3.45;;;;;;;;;;5098234;28;20221;-91
2023/09/02 06:59:20;;;;;;;6.13;4.07;;;;;;;;;;5094745;28;20247;-90
2023/09/02 07:02:25;;;;;;;6.70;3.17;;;;;;;;;;5096314;28;20205;-91
2023/09/02 07:05:31;;;;;;;6.53;3.47;;;;;;;;;;5095632;28;20181;-90
2023/09/02 07:08:36;;;;;;;6.78;3.30;;;;;;;;;;5086542;28;20343;-90
2023/09/02 07:11:44;;;;;;;6.13;3.33;;;;;;;;;;5097320;28;20201;-91
2023/09/02 07:14:53;;;;;;;5.90;3.35;;;;;;;;;;5106675;28;20190;-90
2023/09/02 07:18:02;;;;;;;5.05;3.35;;;;;;;;;;5109418;28;20232;-91
2023/09/02 07:21:09;;;;;;;5.63;3.20;;;;;;;;;;5107704;28;20189;-92
2023/09/02 07:24:18;;;;;;;5.82;3.65;;;;;;;;;;5079002;28;20186;-93
2023/09/02 07:27:27;;;;;;;5.05;3.95;;;;;;;;;;5096519;28;20208;-91
2023/09/02 07:30:34;;;;;;;4.88;3.50;;;;;;;;;;5108116;28;20222;-88
2023/09/02 07:33:39;;;;;;;6.53;4.07;;;;;;;;;;5107581;28;20185;-89
2023/09/02 07:36:45;;;;;;;6.43;4.50;;;;;;;;;;5098307;28;20193;-90
2023/09/02 07:39:51;;;;;;;6.00;3.97;;;;;;;;;;5095716;28;20248;-91
2023/09/02 07:43:00;;;;;;;8.20;4.28;;;;;;;;;;5108683;28;20795;-91
2023/09/02 07:46:06;;;;;;;6.20;4.40;;;;;;;;;;5109609;28;20707;-90
2023/09/02 07:49:12;;;;;;;7.90;4.28;;;;;;;;;;5098212;28;20209;-91
2023/09/02 07:52:21;;;;;;;5.53;4.10;;;;;;;;;;5098235;28;20186;-90
2023/09/02 07:55:27;;;;;;;5.47;4.13;;;;;;;;;;5092190;28;20225;-91
2023/09/02 07:58:42;;;;;;;5.00;4.10;;;;;;;;;;5078978;28;20205;-91
2023/09/02 08:01:50;;;;;;;7.65;4.10;;;;;;;;;;5084846;28;20205;-90
2023/09/02 08:04:56;;;;;;;7.32;3.67;;;;;;;;;;5097069;28;20209;-90
2023/09/02 08:08:01;;;;;;;5.70;3.45;;;;;;;;;;5108649;28;20186;-92
2023/09/02 08:11:08;;;;;;;5.95;3.20;;;;;;;;;;5104297;28;20251;-92
2023/09/02 08:14:14;;;;;;;5.40;3.00;;;;;;;;;;5101192;28;20185;-93
2023/09/02 08:17:20;;;;;;;3.97;3.00;;;;;;;;;;5100329;28;20170;-92
2023/09/02 08:20:25;;;;;;;3.05;2.72;;;;;;;;;;5099539;28;20202;-91
2023/09/02 08:23:30;;;;;;;7.38;2.90;;;;;;;;;;5099385;28;20237;-91
2023/09/02 08:26:37;;;;;;;4.10;3.17;;;;;;;;;;5096848;28;20186;-90
2023/09/02 08:29:43;;;;;;;28.92;22.08;;;;;;;;;;5087647;28;20214;-91
2023/09/02 08:32:50;;;;;;;8.85;3.15;;;;;;;;;;5097421;28;20197;-91
2023/09/02 08:35:54;;;;;;;8.90;3.25;;;;;;;;;;5095972;28;20204;-92
2023/09/02 08:39:00;;;;;;;4.03;2.50;;;;;;;;;;5077556;28;20201;-91
2023/09/02 08:42:07;;;;;;;3.63;2.63;;;;;;;;;;5081663;28;20184;-90
2023/09/02 08:45:14;;;;;;;6.05;2.70;;;;;;;;;;5079838;28;20194;-91
2023/09/02 08:48:26;;;;;;;6.78;3.30;;;;;;;;;;5076233;28;20236;-92
2023/09/02 08:51:31;;;;;;;4.68;2.50;;;;;;;;;;5076627;28;20197;-93
2023/09/02 08:54:38;;;;;;;4.40;2.40;;;;;;;;;;5076163;28;20213;-90
2023/09/02 08:57:44;;;;;;;10.18;2.80;;;;;;;;;;5081451;28;20208;-91
2023/09/02 09:00:51;;;;;;;5.88;2.85;;;;;;;;;;5095466;28;20224;-89
2023/09/02 09:03:57;;;;;;;7.78;3.08;;;;;;;;;;5095038;28;20188;-88
2023/09/02 09:07:05;;;;;;;4.03;2.53;;;;;;;;;;5095828;28;20193;-91
2023/09/02 09:10:11;;;;;;;4.38;2.50;;;;;;;;;;5077554;28;20209;-92
2023/09/02 09:13:17;;;;;;;6.03;3.10;;;;;;;;;;5073815;28;20831;-92
2023/09/02 09:16:25;;;;;;;5.43;2.47;;;;;;;;;;5074503;28;20201;-92
2023/09/02 09:19:30;;;;;;;4.72;2.42;;;;;;;;;;5088609;28;20213;-90
2023/09/02 09:22:41;;;;;;;4.40;2.95;;;;;;;;;;5097123;28;20213;-89
2023/09/02 09:25:49;;;;;;;6.32;2.53;;;;;;;;;;5105520;28;20190;-91
2023/09/02 09:28:56;;;;;;;8.25;3.00;;;;;;;;;;5093671;28;20189;-90
2023/09/02 09:32:10;;;;;;;4.32;2.08;;;;;;;;;;5094104;28;20168;-88
2023/09/02 09:35:22;;;;;;;7.38;2.30;;;;;;;;;;5073139;28;20316;-92
2023/09/02 09:38:38;;;;;;;5.32;1.90;;;;;;;;;;5083995;28;20210;-93
2023/09/02 09:41:47;;;;;;;3.67;1.60;;;;;;;;;;5071532;28;20189;-89
2023/09/02 09:44:53;;;;;;;6.22;1.88;;;;;;;;;;5072257;28;20185;-92
2023/09/02 09:48:00;;;;;;;3.92;1.80;;;;;;;;;;5072635;28;20201;-91
2023/09/02 09:51:10;;;;;;;2.72;1.70;;;;;;;;;;5091193;28;20731;-89
2023/09/02 09:54:15;;;;;;;4.18;1.67;;;;;;;;;;5106550;28;20185;-91
2023/09/02 09:57:30;;;;;;;3.72;1.63;;;;;;;;;;5091457;28;20207;-90
2023/09/02 10:00:35;;;;;;;6.13;1.98;;;;;;;;;;5093748;28;20229;-91
2023/09/02 10:03:41;;;;;;;4.20;1.52;;;;;;;;;;5092257;28;20228;-92
2023/09/02 10:06:47;;;;;;;3.30;1.40;;;;;;;;;;5092406;28;20319;-91
2023/09/02 10:09:54;;;;;;;3.55;1.33;;;;;;;;;;5092100;28;20311;-89
2023/09/02 10:12:59;;;;;;;2.30;1.52;;;;;;;;;;5102271;28;20269;-89
2023/09/02 10:16:05;;;;;;;1.70;1.30;;;;;;;;;;5091491;28;20168;-91
2023/09/02 10:19:12;;;;;;;4.38;1.75;;;;;;;;;;5092013;28;20672;-91
2023/09/02 10:22:19;;;;;;;3.08;1.58;;;;;;;;;;5095391;28;20197;-92
2023/09/02 10:25:27;;;;;;;2.55;1.50;;;;;;;;;;5102565;28;20859;-90
2023/09/02 10:28:38;;;;;;;2.33;1.40;;;;;;;;;;5102473;28;20227;-89
2023/09/02 10:31:48;;;;;;;3.42;1.50;;;;;;;;;;5072535;28;20754;-92
2023/09/02 10:35:00;;;;;;;3.90;1.35;;;;;;;;;;5088076;28;20277;-90
2023/09/02 10:38:06;;;;;;;2.75;1.23;;;;;;;;;;5104796;28;20197;-90
2023/09/02 10:41:13;;;;;;;1.45;1.00;;;;;;;;;;5103446;28;20221;-91
2023/09/02 10:44:19;;;;;;;2.30;1.00;;;;;;;;;;5104662;28;20189;-91
2023/09/02 10:47:31;;;;;;;5.40;1.40;;;;;;;;;;5103976;28;20197;-89
2023/09/02 10:50:42;;;;;;;2.40;1.00;;;;;;;;;;5103645;28;20197;-91
2023/09/02 10:54:02;;;;;;;4.03;1.73;;;;;;;;;;5084716;28;20208;-91
2023/09/02 10:57:13;;;;;;;1.85;1.00;;;;;;;;;;5102562;28;20545;-92
2023/09/02 11:00:19;;;;;;;5.47;1.67;;;;;;;;;;5104034;28;20240;-91
2023/09/02 11:03:44;;;;;;;3.25;1.52;;;;;;;;;;5102579;28;20197;-90
2023/09/02 11:07:19;;;;;;;2.75;1.70;;;;;;;;;;5101716;28;20456;-89
2023/09/02 11:10:46;;;;;;;4.35;1.35;;;;;;;;;;5103307;28;20193;-89
2023/09/02 11:14:09;;;;;;;1.83;1.42;;;;;;;;;;5103130;28;20197;-91
2023/09/02 11:17:28;;;;;;;2.10;1.33;;;;;;;;;;5103077;28;20207;-89
2023/09/02 11:20:49;;;;;;;3.03;1.33;;;;;;;;;;5103045;28;20262;-91
2023/09/02 11:23:54;;;;;;;2.00;1.30;;;;;;;;;;5104710;28;20571;-91
2023/09/02 11:27:09;;;;;;;1.80;1.25;;;;;;;;;;5145815;22;20343;-89
2023/09/02 11:30:14;;;;;;;2.75;1.30;;;;;;;;;;5115688;27;20181;-92
2023/09/02 11:33:20;;;;;;;3.70;1.30;;;;;;;;;;5104564;28;20201;-88
2023/09/02 11:36:36;;;;;;;1.83;1.50;;;;;;;;;;5108645;28;20193;-91
2023/09/02 11:39:41;;;;;;;2.58;1.42;;;;;;;;;;5105879;28;20228;-91
2023/09/02 11:42:51;;;;;;;2.60;1.50;;;;;;;;;;5103052;28;20212;-90
2023/09/02 11:45:57;;;;;;;2.22;1.42;;;;;;;;;;5107063;28;20197;-90
2023/09/02 11:49:02;;;;;;;2.78;1.50;;;;;;;;;;5127774;28;20297;-91
2023/09/02 11:52:08;;;;;;;2.42;1.27;;;;;;;;;;5130143;28;20215;-91
2023/09/02 11:55:14;;;;;;;1.90;1.20;;;;;;;;;;5107584;28;20560;-91
2023/09/02 11:58:21;;;;;;;3.90;1.60;;;;;;;;;;5108680;28;20263;-91
2023/09/02 12:01:27;;;;;;;2.35;1.40;;;;;;;;;;5102846;28;20351;-91
2023/09/02 12:04:36;;;;;;;2.90;1.67;;;;;;;;;;5103014;28;20261;-90
2023/09/02 12:07:43;;;;;;;4.70;2.10;;;;;;;;;;5120096;27;20297;-90
2023/09/02 12:10:48;;;;;;;2.92;2.13;;;;;;;;;;5119125;27;20189;-92
2023/09/02 12:13:55;;;;;;;5.35;2.00;;;;;;;;;;5110975;27;20173;-92
2023/09/02 12:17:01;;;;;;;3.58;1.73;;;;;;;;;;5102743;28;20204;-92
2023/09/02 12:20:08;;;;;;;4.57;1.60;;;;;;;;;;5090700;28;20214;-91
2023/09/02 12:23:14;;;;;;;2.05;1.23;;;;;;;;;;5081248;28;20193;-92
2023/09/02 12:26:19;;;;;;;2.40;1.27;;;;;;;;;;5109564;28;20215;-92
2023/09/02 12:29:26;;;;;;;2.75;1.38;;;;;;;;;;5111953;28;20240;-92
2023/09/02 12:32:32;;;;;;;2.38;1.33;;;;;;;;;;5112660;28;20288;-92
2023/09/02 12:35:40;;;;;;;5.05;1.30;;;;;;;;;;5110723;28;20274;-93
2023/09/02 12:38:52;;;;;;;2.70;1.30;;;;;;;;;;5110590;28;20191;-91
2023/09/02 12:42:00;;;;;;;2.15;1.27;;;;;;;;;;5110238;28;20594;-90
2023/09/02 12:45:09;;;;;;;2.13;1.23;;;;;;;;;;5100808;28;20348;-91
2023/09/02 12:48:15;;;;;;;2.38;1.23;;;;;;;;;;5134802;27;20330;-91
2023/09/02 12:51:27;;;;;;;2.10;1.15;;;;;;;;;;5111553;28;20193;-91
2023/09/02 12:54:32;;;;;;;1.50;1.10;;;;;;;;;;5123009;27;20185;-92
2023/09/02 12:57:38;;;;;;;2.28;1.30;;;;;;;;;;5123454;28;20189;-92
2023/09/02 13:00:48;;;;;;;2.03;1.15;;;;;;;;;;5124020;28;20216;-90
2023/09/02 13:03:53;;;;;;;2.42;1.40;;;;;;;;;;5123134;27;20572;-91
2023/09/02 13:06:58;;;;;;;1.30;1.00;;;;;;;;;;5157972;22;20247;-92
2023/09/02 13:10:03;;;;;;;1.65;1.00;;;;;;;;;;5109951;28;20189;-91
2023/09/02 13:13:09;;;;;;;1.80;1.10;;;;;;;;;;5111223;28;20168;-92
2023/09/02 13:16:16;;;;;;;2.17;1.00;;;;;;;;;;5110299;28;20255;-92
2023/09/02 13:19:29;;;;;;;5.28;1.48;;;;;;;;;;5109108;28;20189;-90
2023/09/02 13:22:36;;;;;;;1.85;1.50;;;;;;;;;;5108674;28;20223;-94
2023/09/02 13:25:42;;;;;;;1.30;0.90;;;;;;;;;;5107395;28;20181;-91
2023/09/02 13:28:51;;;;;;;1.67;1.05;;;;;;;;;;5106772;28;20693;-91
2023/09/02 13:32:07;;;;;;;2.90;0.98;;;;;;;;;;5108508;28;20201;-92
2023/09/02 13:35:16;;;;;;;2.60;1.10;;;;;;;;;;5106737;28;20268;-92
2023/09/02 13:38:24;;;;;;;1.30;0.90;;;;;;;;;;5106769;28;20201;-94
2023/09/02 13:41:30;;;;;;;2.15;1.00;;;;;;;;;;5108576;28;20221;-93
2023/09/02 13:44:35;;;;;;;2.90;1.20;;;;;;;;;;5108491;28;20188;-91
2023/09/02 13:47:45;;;;;;;2.20;1.20;;;;;;;;;;5107897;28;20189;-92
2023/09/02 13:50:50;;;;;;;2.17;1.00;;;;;;;;;;5106722;28;20661;-93
2023/09/02 13:53:55;;;;;;;13.30;3.08;;;;;;;;;;5107529;28;20192;-92
2023/09/02 13:57:00;;;;;;;4.57;1.13;;;;;;;;;;5108325;28;20265;-93
2023/09/02 14:00:08;;;;;;;3.72;1.60;;;;;;;;;;5107186;28;20199;-91
2023/09/02 14:03:20;;;;;;;4.18;1.30;;;;;;;;;;5107937;28;20324;-92
2023/09/02 14:06:26;;;;;;;4.55;1.08;;;;;;;;;;5105365;28;20247;-92
2023/09/02 14:09:31;;;;;;;1.40;1.00;;;;;;;;;;5105849;28;20208;-93
2023/09/02 14:12:36;;;;;;;3.55;0.90;;;;;;;;;;5098832;28;20323;-91
2023/09/02 14:15:41;;;;;;;1.10;0.95;;;;;;;;;;5101205;28;20789;-92
2023/09/02 14:18:50;;;;;;;5.20;3.30;;;;;;;;;;5105829;28;20196;-91
2023/09/02 14:21:55;;;;;;;1.50;1.10;;;;;;;;;;5105421;28;20215;-95
2023/09/02 14:25:00;;;;;;;2.35;1.02;;;;;;;;;;5105910;28;20398;-91
2023/09/02 14:28:06;;;;;;;2.08;1.00;;;;;;;;;;5096013;28;20201;-91
2023/09/02 14:31:11;;;;;;;1.98;1.08;;;;;;;;;;5105551;28;20197;-90
2023/09/02 14:34:18;;;;;;;3.70;0.90;;;;;;;;;;5106621;28;20185;-91
2023/09/02 14:37:26;;;;;;;1.73;1.10;;;;;;;;;;5106784;28;20189;-91
2023/09/02 14:40:32;;;;;;;1.20;0.93;;;;;;;;;;5106454;28;20215;-90
2023/09/02 14:43:37;;;;;;;6.15;1.00;;;;;;;;;;5108331;28;20261;-91
2023/09/02 14:46:45;;;;;;;1.55;0.93;;;;;;;;;;5108687;28;20185;-92
2023/09/02 14:49:54;;;;;;;1.98;0.90;;;;;;;;;;5109424;28;20270;-93
2023/09/02 14:52:59;;;;;;;1.35;0.90;;;;;;;;;;5108082;28;20189;-92
2023/09/02 14:56:05;;;;;;;1.30;1.00;;;;;;;;;;5108383;28;20180;-93
2023/09/02 14:59:14;;;;;;;1.40;1.30;;;;;;;;;;5106798;28;20648;-92
2023/09/02 15:02:20;;;;;;;3.13;1.40;;;;;;;;;;5107710;28;20225;-91
2023/09/02 15:05:34;;;;;;;1.48;1.00;;;;;;;;;;5107746;28;20207;-91
2023/09/02 15:08:40;;;;;;;3.08;1.10;;;;;;;;;;5107139;28;20189;-90
2023/09/02 15:11:45;;;;;;;2.45;1.02;;;;;;;;;;5105861;28;20276;-91
2023/09/02 15:14:51;;;;;;;2.42;1.00;;;;;;;;;;5106205;28;20668;-92
2023/09/02 15:17:36;;;;;;;3.17;1.00;;;;;;;;;;5064635;28;20215;-92
2023/09/02 15:20:43;;;;;;;4.30;0.98;;;;;;;;;;5075949;28;20190;-92
2023/09/02 15:23:48;;;;;;;2.05;1.00;;;;;;;;;;5067536;28;20186;-89
2023/09/02 15:26:53;;;;;;;1.73;0.98;;;;;;;;;;5077117;28;20251;-90
2023/09/02 15:29:59;;;;;;;1.73;1.20;;;;;;;;;;5079383;28;20174;-92
2023/09/02 15:33:05;;;;;;;4.95;1.50;;;;;;;;;;5079656;28;20280;-91
2023/09/02 15:36:16;;;;;;;1.52;1.00;;;;;;;;;;5078249;28;20198;-89
2023/09/02 15:39:25;;;;;;;4.28;1.83;;;;;;;;;;5074848;28;20190;-91
2023/09/02 15:42:38;;;;;;;3.20;1.23;;;;;;;;;;5079187;28;20707;-90
2023/09/02 15:45:44;;;;;;;2.78;1.48;;;;;;;;;;5078134;28;20194;-93
2023/09/02 15:48:51;;;;;;;2.83;1.35;;;;;;;;;;5093536;28;20194;-91
2023/09/02 15:51:57;;;;;;;3.45;1.30;;;;;;;;;;5085403;28;20182;-90
2023/09/02 15:55:03;;;;;;;1.73;1.13;;;;;;;;;;5087200;28;20206;-92
2023/09/02 15:58:08;;;;;;;1.73;1.20;;;;;;;;;;5069847;28;20217;-90
2023/09/02 16:01:13;;;;;;;2.50;1.30;;;;;;;;;;5057680;28;20199;-90
2023/09/02 16:04:19;;;;;;;3.80;1.10;;;;;;;;;;5067791;28;20309;-90
2023/09/02 16:07:26;;;;;;;3.92;1.10;;;;;;;;;;5078242;28;20177;-90
2023/09/02 16:10:32;;;;;;;4.40;2.40;;;;;;;;;;5056767;28;20192;-91
2023/09/02 16:13:38;;;;;;;3.22;1.27;;;;;;;;;;5060333;28;20215;-90
2023/09/02 16:16:43;;;;;;;1.83;1.25;;;;;;;;;;5079848;28;20214;-90
2023/09/02 16:19:48;;;;;;;6.32;1.30;;;;;;;;;;5097404;28;20190;-92
2023/09/02 16:23:00;;;;;;;2.88;1.40;;;;;;;;;;5083099;28;20286;-91
2023/09/02 16:26:06;;;;;;;2.53;1.30;;;;;;;;;;5094021;28;20273;-90
2023/09/02 16:29:12;;;;;;;4.55;2.08;;;;;;;;;;5096056;28;20225;-90
2023/09/02 16:32:17;;;;;;;2.72;1.40;;;;;;;;;;5098661;28;20195;-90
2023/09/02 16:35:24;;;;;;;3.05;1.25;;;;;;;;;;5097292;28;20213;-91
2023/09/02 16:38:30;;;;;;;10.85;1.77;;;;;;;;;;5096878;28;20194;-89
2023/09/02 16:41:43;;;;;;;4.15;1.30;;;;;;;;;;5099668;28;20263;-90
2023/09/02 16:44:48;;;;;;;3.03;1.70;;;;;;;;;;5099836;28;20186;-89
2023/09/02 16:47:55;;;;;;;4.63;2.30;;;;;;;;;;5099394;28;20476;-90
2023/09/02 16:51:00;;;;;;;4.18;2.22;;;;;;;;;;5086495;28;20207;-90
2023/09/02 16:54:07;;;;;;;5.60;2.50;;;;;;;;;;5097200;28;20181;-88
2023/09/02 16:57:12;;;;;;;5.50;1.80;;;;;;;;;;5097804;28;20182;-89
2023/09/02 17:00:18;;;;;;;4.55;2.00;;;;;;;;;;5100601;28;20220;-88
2023/09/02 17:03:23;;;;;;;4.65;1.73;;;;;;;;;;5100525;28;20190;-88
2023/09/02 17:06:28;;;;;;;5.15;1.90;;;;;;;;;;5097543;28;20304;-89
2023/09/02 17:09:35;;;;;;;3.17;1.50;;;;;;;;;;5097897;28;20190;-89
2023/09/02 17:12:44;;;;;;;3.30;1.98;;;;;;;;;;5097087;28;20270;-88
2023/09/02 17:15:49;;;;;;;2.28;1.50;;;;;;;;;;5095566;28;20216;-89
2023/09/02 17:18:54;;;;;;;3.53;1.38;;;;;;;;;;5095891;28;20179;-89
2023/09/02 17:22:00;;;;;;;4.20;1.30;;;;;;;;;;5096551;28;20206;-90
2023/09/02 17:25:07;;;;;;;4.40;1.77;;;;;;;;;;5083872;28;20233;-89
2023/09/02 17:28:17;;;;;;;7.60;1.70;;;;;;;;;;5095703;28;20191;-90
2023/09/02 17:31:22;;;;;;;8.35;2.25;;;;;;;;;;5085751;28;20186;-89
2023/09/02 17:34:27;;;;;;;8.75;2.78;;;;;;;;;;5095818;28;20190;-90
2023/09/02 17:37:34;;;;;;;4.10;2.17;;;;;;;;;;5096393;28;20646;-90
2023/09/02 17:40:40;;;;;;;5.05;2.67;;;;;;;;;;5096763;28;20178;-89
2023/09/02 17:43:45;;;;;;;8.50;2.83;;;;;;;;;;5098179;28;20182;-88
2023/09/02 17:46:51;;;;;;;9.32;2.60;;;;;;;;;;5096612;28;20186;-88
2023/09/02 17:49:58;;;;;;;7.78;3.10;;;;;;;;;;5085715;28;20243;-88
2023/09/02 17:53:04;;;;;;;8.57;2.58;;;;;;;;;;5085140;28;20204;-89
2023/09/02 17:56:11;;;;;;;5.75;2.20;;;;;;;;;;5096234;28;20170;-89
2023/09/02 17:59:16;;;;;;;7.32;2.30;;;;;;;;;;5098909;28;20198;-88
2023/09/02 18:02:21;;;;;;;3.78;2.10;;;;;;;;;;5096289;28;20238;-89
2023/09/02 18:05:26;;;;;;;5.15;2.22;;;;;;;;;;5097015;28;20209;-88
2023/09/02 18:08:31;;;;;;;5.90;2.70;;;;;;;;;;5096017;28;20190;-89
2023/09/02 18:11:38;;;;;;;7.15;2.53;;;;;;;;;;5083551;28;20680;-89
2023/09/02 18:14:51;;;;;;;5.28;2.47;;;;;;;;;;5100997;28;20202;-90
2023/09/02 18:17:56;;;;;;;5.55;2.35;;;;;;;;;;5087438;28;20340;-89
2023/09/02 18:21:01;;;;;;;6.00;2.30;;;;;;;;;;5091416;28;20190;-90
2023/09/02 18:24:08;;;;;;;7.90;2.63;;;;;;;;;;5097544;28;20190;-90
2023/09/02 18:27:15;;;;;;;7.75;2.50;;;;;;;;;;5084469;28;20198;-89
2023/09/02 18:30:23;;;;;;;9.27;2.53;;;;;;;;;;5097138;28;20268;-88
2023/09/02 18:33:28;;;;;;;5.72;2.00;;;;;;;;;;5099514;28;20178;-88
2023/09/02 18:36:35;;;;;;;6.90;1.60;;;;;;;;;;5096399;28;20187;-89
2023/09/02 18:39:41;;;;;;;5.65;2.33;;;;;;;;;;5086145;28;20174;-89